createdAt,value
2023-03-11T00:00:00.439Z,98437.94
2023-03-11T00:00:17.013Z,98436.34
2023-03-11T00:00:30.840Z,98437.25
2023-03-11T00:00:47.185Z,98433.09
2023-03-11T00:00:59.433Z,98439.91
2023-03-11T00:01:11.731Z,98432.16
2023-03-11T00:01:23.615Z,98434.72
2023-03-11T00:01:35.590Z,98451.81
2023-03-11T00:01:47.527Z,98445.84
2023-03-11T00:01:59.454Z,98435.56
2023-03-11T00:02:11.889Z,98438.31
2023-03-11T00:02:23.889Z,98446.97
2023-03-11T00:02:35.838Z,98441.97
2023-03-11T00:02:49.757Z,98447.06
2023-03-11T00:03:03.544Z,98441.97
2023-03-11T00:03:19.258Z,98442.78
2023-03-11T00:03:31.204Z,98441.75
2023-03-11T00:03:43.089Z,98446.41
2023-03-11T00:03:55.053Z,98452.25
2023-03-11T00:04:07.406Z,98454.94
2023-03-11T00:04:19.321Z,98451.56
2023-03-11T00:04:31.319Z,98448.88
2023-03-11T00:04:44.059Z,98451.59
2023-03-11T00:04:55.993Z,98443.94
2023-03-11T00:05:09.208Z,98449.03
2023-03-11T00:05:27.904Z,98446.47
2023-03-11T00:05:42.186Z,98450.63
2023-03-11T00:05:57.469Z,98438.59
2023-03-11T00:06:09.593Z,98447.91
2023-03-11T00:06:21.629Z,98450.72
2023-03-11T00:06:36.661Z,98453.44
2023-03-11T00:06:48.605Z,98449.97
2023-03-11T00:07:00.558Z,98440.69
2023-03-11T00:07:13.510Z,98449.28
2023-03-11T00:07:28.033Z,98452.66
2023-03-11T00:07:40.114Z,98455.88
2023-03-11T00:07:52.304Z,98443.81
2023-03-11T00:08:06.589Z,98461.91
2023-03-11T00:08:22.660Z,98443.38
2023-03-11T00:08:34.642Z,98454.63
2023-03-11T00:08:46.551Z,98458.66
2023-03-11T00:08:58.456Z,98452.88
2023-03-11T00:09:10.402Z,98449.50
2023-03-11T00:09:22.349Z,98461.59
2023-03-11T00:09:37.319Z,98449.72
2023-03-11T00:09:49.281Z,98451.38
2023-03-11T00:10:01.204Z,98448.72
2023-03-11T00:10:19.101Z,98459.81
2023-03-11T00:10:34.725Z,98460.63
2023-03-11T00:10:48.292Z,98467.44
2023-03-11T00:11:00.595Z,98455.72
2023-03-11T00:11:12.621Z,98459.91
2023-03-11T00:11:25.134Z,98465.56
2023-03-11T00:11:37.118Z,98462.31
2023-03-11T00:11:49.705Z,98462.38
2023-03-11T00:12:03.336Z,98464.91
2023-03-11T00:12:15.395Z,98464.84
2023-03-11T00:12:27.284Z,98447.88
2023-03-11T00:12:39.240Z,98464.72
2023-03-11T00:12:51.728Z,98469.91
2023-03-11T00:13:06.097Z,98459.63
2023-03-11T00:13:18.434Z,98467.28
2023-03-11T00:13:30.640Z,98476.75
2023-03-11T00:13:42.587Z,98470.03
2023-03-11T00:13:54.526Z,98482.28
2023-03-11T00:14:06.473Z,98485.56
2023-03-11T00:14:18.415Z,98480.41
2023-03-11T00:14:30.519Z,98479.72
2023-03-11T00:14:42.432Z,98473.63
2023-03-11T00:14:54.369Z,98464.34
2023-03-11T00:15:06.649Z,98479.78
2023-03-11T00:15:18.704Z,98467.72
2023-03-11T00:15:31.798Z,98482.97
2023-03-11T00:15:47.063Z,98481.25
2023-03-11T00:16:00.858Z,98483.75
2023-03-11T00:16:13.098Z,98482.28
2023-03-11T00:16:25.219Z,98490.78
2023-03-11T00:16:37.251Z,98484.28
2023-03-11T00:16:52.000Z,98473.81
2023-03-11T00:17:04.057Z,98482.41
2023-03-11T00:17:15.977Z,98482.41
2023-03-11T00:17:28.013Z,98487.47
2023-03-11T00:17:40.188Z,98477.13
2023-03-11T00:17:52.413Z,98471.25
2023-03-11T00:18:05.972Z,98467.84
2023-03-11T00:18:18.610Z,98459.44
2023-03-11T00:18:31.411Z,98472.03
2023-03-11T00:18:43.548Z,98473.63
2023-03-11T00:18:55.864Z,98458.34
2023-03-11T00:19:07.779Z,98467.69
2023-03-11T00:19:22.700Z,98464.47
2023-03-11T00:19:34.679Z,98479.97
2023-03-11T00:19:46.924Z,98473.13
2023-03-11T00:19:58.930Z,98473.22
2023-03-11T00:20:22.466Z,98480.97
2023-03-11T00:20:37.506Z,98477.28
2023-03-11T00:20:49.394Z,98481.78
2023-03-11T00:21:01.383Z,98478.50
2023-03-11T00:21:17.111Z,98489.56
2023-03-11T00:21:30.143Z,98475.94
2023-03-11T00:21:42.043Z,98474.06
2023-03-11T00:21:54.007Z,98467.31
2023-03-11T00:22:06.003Z,98467.19
2023-03-11T00:22:17.972Z,98474.91
2023-03-11T00:22:32.065Z,98468.28
2023-03-11T00:22:44.006Z,98469.97
2023-03-11T00:22:56.871Z,98464.78
2023-03-11T00:23:13.520Z,98465.59
2023-03-11T00:23:26.355Z,98474.25
2023-03-11T00:23:38.607Z,98480.16
2023-03-11T00:23:50.558Z,98472.44
2023-03-11T00:24:03.585Z,98467.25
2023-03-11T00:24:15.582Z,98475.81
2023-03-11T00:24:28.142Z,98480.00
2023-03-11T00:24:40.079Z,98481.75
2023-03-11T00:24:51.978Z,98478.50
2023-03-11T00:25:04.784Z,98479.31
2023-03-11T00:25:18.164Z,98477.63
2023-03-11T00:25:32.084Z,98489.47
2023-03-11T00:25:46.093Z,98480.19
2023-03-11T00:25:59.849Z,98484.47
2023-03-11T00:26:12.018Z,98479.38
2023-03-11T00:26:23.916Z,98487.78
2023-03-11T00:26:35.859Z,98472.41
2023-03-11T00:26:47.863Z,98476.75
2023-03-11T00:26:59.820Z,98478.38
2023-03-11T00:27:11.986Z,98471.53
2023-03-11T00:27:24.825Z,98476.06
2023-03-11T00:27:37.202Z,98487.16
2023-03-11T00:27:50.157Z,98470.72
2023-03-11T00:28:02.478Z,98498.06
2023-03-11T00:28:16.076Z,98483.41
2023-03-11T00:28:28.129Z,98479.31
2023-03-11T00:28:40.102Z,98479.38
2023-03-11T00:28:52.182Z,98486.47
2023-03-11T00:29:04.166Z,98501.88
2023-03-11T00:29:16.061Z,98487.31
2023-03-11T00:29:27.964Z,98489.88
2023-03-11T00:29:39.913Z,98492.69
2023-03-11T00:29:51.872Z,98497.19
2023-03-11T00:30:05.701Z,98490.38
2023-03-11T00:30:18.941Z,98486.94
2023-03-11T00:30:31.733Z,98489.53
2023-03-11T00:30:45.673Z,98485.31
2023-03-11T00:30:57.742Z,98484.53
2023-03-11T00:31:12.790Z,98492.25
2023-03-11T00:31:26.510Z,98488.81
2023-03-11T00:31:38.448Z,98484.56
2023-03-11T00:31:52.665Z,98488.81
2023-03-11T00:32:07.605Z,98493.13
2023-03-11T00:32:19.533Z,98487.13
2023-03-11T00:32:31.556Z,98490.56
2023-03-11T00:32:43.855Z,98503.19
2023-03-11T00:32:57.915Z,98496.41
2023-03-11T00:33:12.232Z,98501.53
2023-03-11T00:33:24.346Z,98497.97
2023-03-11T00:33:36.361Z,98491.28
2023-03-11T00:33:48.588Z,98502.38
2023-03-11T00:34:00.591Z,98497.13
2023-03-11T00:34:12.522Z,98502.25
2023-03-11T00:34:25.672Z,98494.50
2023-03-11T00:34:37.602Z,98503.78
2023-03-11T00:34:49.558Z,98491.88
2023-03-11T00:35:01.601Z,98497.84
2023-03-11T00:35:16.182Z,98507.34
2023-03-11T00:35:30.854Z,98500.38
2023-03-11T00:35:43.420Z,98513.31
2023-03-11T00:35:55.440Z,98508.09
2023-03-11T00:36:07.906Z,98511.34
2023-03-11T00:36:34.026Z,98518.34
2023-03-11T00:36:45.931Z,98512.34
2023-03-11T00:36:57.934Z,98516.47
2023-03-11T00:37:09.826Z,98519.75
2023-03-11T00:37:21.775Z,98520.88
2023-03-11T00:37:33.965Z,98522.66
2023-03-11T00:37:48.966Z,98516.72
2023-03-11T00:38:06.743Z,98510.66
2023-03-11T00:38:18.834Z,98511.31
2023-03-11T00:38:30.797Z,98512.22
2023-03-11T00:38:42.723Z,98514.72
2023-03-11T00:38:54.929Z,98521.59
2023-03-11T00:39:07.021Z,98521.81
2023-03-11T00:39:18.952Z,98526.94
2023-03-11T00:39:30.858Z,98517.75
2023-03-11T00:39:42.779Z,98526.34
2023-03-11T00:39:54.673Z,98532.31
2023-03-11T00:40:08.765Z,98529.72
2023-03-11T00:40:21.883Z,98528.97
2023-03-11T00:40:35.230Z,98525.38
2023-03-11T00:40:48.743Z,98540.84
2023-03-11T00:41:01.888Z,98533.16
2023-03-11T00:41:16.803Z,98535.69
2023-03-11T00:41:29.128Z,98531.25
2023-03-11T00:41:41.104Z,98531.19
2023-03-11T00:41:53.701Z,98537.19
2023-03-11T00:42:07.111Z,98527.75
2023-03-11T00:42:19.031Z,98530.22
2023-03-11T00:42:30.954Z,98525.13
2023-03-11T00:42:42.941Z,98525.38
2023-03-11T00:42:54.985Z,98529.75
2023-03-11T00:43:06.882Z,98519.50
2023-03-11T00:43:18.928Z,98529.72
2023-03-11T00:43:30.901Z,98520.22
2023-03-11T00:43:43.584Z,98533.03
2023-03-11T00:43:55.582Z,98530.66
2023-03-11T00:44:07.562Z,98526.44
2023-03-11T00:44:19.547Z,98530.81
2023-03-11T00:44:31.442Z,98552.91
2023-03-11T00:44:43.375Z,98536.63
2023-03-11T00:44:55.288Z,98541.66
2023-03-11T00:45:07.911Z,98539.97
2023-03-11T00:45:20.348Z,98536.53
2023-03-11T00:45:32.564Z,98535.00
2023-03-11T00:45:44.545Z,98532.59
2023-03-11T00:45:56.487Z,98532.56
2023-03-11T00:46:12.678Z,98534.97
2023-03-11T00:46:24.737Z,98529.75
2023-03-11T00:46:36.830Z,98528.84
2023-03-11T00:46:48.842Z,98528.75
2023-03-11T00:47:00.838Z,98534.63
2023-03-11T00:47:15.521Z,98541.53
2023-03-11T00:47:27.521Z,98540.63
2023-03-11T00:47:39.908Z,98545.72
2023-03-11T00:47:53.872Z,98548.38
2023-03-11T00:48:06.463Z,98543.38
2023-03-11T00:48:18.466Z,98546.75
2023-03-11T00:48:30.393Z,98545.03
2023-03-11T00:48:42.282Z,98548.75
2023-03-11T00:48:54.243Z,98543.50
2023-03-11T00:49:06.137Z,98555.41
2023-03-11T00:49:18.235Z,98541.78
2023-03-11T00:49:30.132Z,98536.66
2023-03-11T00:49:42.059Z,98545.13
2023-03-11T00:49:54.029Z,98538.44
2023-03-11T00:50:07.742Z,98528.22
2023-03-11T00:50:23.659Z,98531.66
2023-03-11T00:50:37.354Z,98533.63
2023-03-11T00:50:50.418Z,98532.66
2023-03-11T00:51:02.318Z,98526.59
2023-03-11T00:51:15.591Z,98534.31
2023-03-11T00:51:28.149Z,98543.63
2023-03-11T00:51:40.185Z,98536.78
2023-03-11T00:51:52.109Z,98540.28
2023-03-11T00:52:04.711Z,98545.28
2023-03-11T00:52:16.614Z,98541.97
2023-03-11T00:52:31.599Z,98551.41
2023-03-11T00:52:45.720Z,98557.25
2023-03-11T00:52:58.574Z,98556.53
2023-03-11T00:53:11.958Z,98552.44
2023-03-11T00:53:23.864Z,98549.69
2023-03-11T00:53:36.000Z,98550.44
2023-03-11T00:53:48.045Z,98554.81
2023-03-11T00:54:01.266Z,98550.53
2023-03-11T00:54:13.488Z,98538.50
2023-03-11T00:54:26.432Z,98540.13
2023-03-11T00:54:38.328Z,98539.41
2023-03-11T00:54:50.224Z,98543.66
2023-03-11T00:55:04.272Z,98543.66
2023-03-11T00:55:22.831Z,98548.69
2023-03-11T00:55:38.065Z,98550.19
2023-03-11T00:55:50.006Z,98547.75
2023-03-11T00:56:07.635Z,98550.28
2023-03-11T00:56:19.595Z,98548.53
2023-03-11T00:56:31.657Z,98550.34
2023-03-11T00:56:43.606Z,98555.53
2023-03-11T00:56:55.610Z,98554.66
2023-03-11T00:57:07.551Z,98548.69
2023-03-11T00:57:19.486Z,98551.22
2023-03-11T00:57:31.509Z,98554.78
2023-03-11T00:57:43.976Z,98550.53
2023-03-11T00:58:01.191Z,98554.81
2023-03-11T00:58:13.599Z,98547.94
2023-03-11T00:58:28.193Z,98549.66
2023-03-11T00:58:41.350Z,98545.56
2023-03-11T00:58:53.245Z,98545.69
2023-03-11T00:59:05.122Z,98560.97
2023-03-11T00:59:17.008Z,98558.31
2023-03-11T00:59:29.287Z,98561.78
2023-03-11T00:59:41.653Z,98558.41
2023-03-11T00:59:53.548Z,98564.34
2023-03-11T01:00:09.863Z,98560.13
2023-03-11T01:00:23.490Z,98566.88
2023-03-11T01:00:35.530Z,98566.81
2023-03-11T01:00:48.603Z,98563.34
2023-03-11T01:01:06.687Z,98567.53
2023-03-11T01:01:20.382Z,98560.06
2023-03-11T01:01:32.428Z,98562.59
2023-03-11T01:01:44.431Z,98562.53
2023-03-11T01:01:56.389Z,98557.50
2023-03-11T01:02:08.378Z,98552.44
2023-03-11T01:02:20.356Z,98544.63
2023-03-11T01:02:32.546Z,98548.06
2023-03-11T01:02:44.544Z,98547.16
2023-03-11T01:02:56.992Z,98543.63
2023-03-11T01:03:09.045Z,98553.97
2023-03-11T01:03:21.051Z,98548.84
2023-03-11T01:03:32.985Z,98552.16
2023-03-11T01:03:45.518Z,98548.69
2023-03-11T01:03:57.457Z,98554.78
2023-03-11T01:04:09.420Z,98559.88
2023-03-11T01:04:21.408Z,98564.97
2023-03-11T01:04:33.521Z,98560.72
2023-03-11T01:04:45.485Z,98560.97
2023-03-11T01:04:57.508Z,98559.97
2023-03-11T01:05:10.570Z,98559.94
2023-03-11T01:05:26.740Z,98557.41
2023-03-11T01:05:38.972Z,98560.13
2023-03-11T01:05:50.943Z,98547.25
2023-03-11T01:06:02.933Z,98549.09
2023-03-11T01:06:16.765Z,98549.91
2023-03-11T01:06:44.449Z,98561.78
2023-03-11T01:06:57.301Z,98547.31
2023-03-11T01:07:11.272Z,98543.97
2023-03-11T01:07:23.801Z,98535.63
2023-03-11T01:07:36.130Z,98541.50
2023-03-11T01:07:48.835Z,98543.97
2023-03-11T01:08:03.814Z,98545.63
2023-03-11T01:08:15.737Z,98545.56
2023-03-11T01:08:28.000Z,98552.47
2023-03-11T01:08:40.751Z,98540.56
2023-03-11T01:08:52.685Z,98540.44
2023-03-11T01:09:05.490Z,98531.00
2023-03-11T01:09:17.482Z,98547.31
2023-03-11T01:09:29.374Z,98543.81
2023-03-11T01:09:42.908Z,98550.63
2023-03-11T01:09:54.869Z,98554.09
2023-03-11T01:10:07.794Z,98545.28
2023-03-11T01:10:20.298Z,98554.84
2023-03-11T01:10:33.468Z,98552.38
2023-03-11T01:10:45.393Z,98553.97
2023-03-11T01:10:58.461Z,98554.09
2023-03-11T01:11:10.473Z,98544.03
2023-03-11T01:11:22.420Z,98549.97
2023-03-11T01:11:34.530Z,98555.03
2023-03-11T01:11:46.437Z,98544.03
2023-03-11T01:11:58.349Z,98544.78
2023-03-11T01:12:10.279Z,98545.50
2023-03-11T01:12:22.213Z,98537.97
2023-03-11T01:12:34.486Z,98549.00
2023-03-11T01:12:47.766Z,98542.19
2023-03-11T01:12:59.710Z,98538.72
2023-03-11T01:13:11.593Z,98535.31
2023-03-11T01:13:27.974Z,98552.47
2023-03-11T01:13:41.820Z,98549.06
2023-03-11T01:13:53.757Z,98553.28
2023-03-11T01:14:05.742Z,98550.72
2023-03-11T01:14:18.641Z,98549.06
2023-03-11T01:14:30.542Z,98552.47
2023-03-11T01:14:42.517Z,98549.88
2023-03-11T01:14:55.528Z,98557.66
2023-03-11T01:15:08.315Z,98547.66
2023-03-11T01:15:30.288Z,98542.72
2023-03-11T01:15:42.384Z,98543.50
2023-03-11T01:15:55.478Z,98539.31
2023-03-11T01:16:09.270Z,98540.97
2023-03-11T01:16:21.559Z,98549.41
2023-03-11T01:16:33.494Z,98537.41
2023-03-11T01:16:46.382Z,98544.28
2023-03-11T01:16:58.335Z,98542.50
2023-03-11T01:17:10.289Z,98532.19
2023-03-11T01:17:22.232Z,98548.38
2023-03-11T01:17:35.046Z,98538.91
2023-03-11T01:17:47.170Z,98550.84
2023-03-11T01:17:59.274Z,98550.84
2023-03-11T01:18:11.331Z,98553.56
2023-03-11T01:18:23.802Z,98556.03
2023-03-11T01:18:35.730Z,98555.09
2023-03-11T01:18:47.736Z,98555.03
2023-03-11T01:18:59.686Z,98560.25
2023-03-11T01:19:11.942Z,98546.50
2023-03-11T01:19:23.860Z,98548.13
2023-03-11T01:19:35.905Z,98544.75
2023-03-11T01:19:48.936Z,98539.66
2023-03-11T01:20:00.885Z,98537.09
2023-03-11T01:20:13.444Z,98526.03
2023-03-11T01:20:25.707Z,98535.34
2023-03-11T01:20:38.764Z,98526.84
2023-03-11T01:20:51.066Z,98524.25
2023-03-11T01:21:03.222Z,98529.41
2023-03-11T01:21:15.505Z,98532.75
2023-03-11T01:21:28.096Z,98534.53
2023-03-11T01:21:40.356Z,98532.19
2023-03-11T01:21:52.290Z,98533.91
2023-03-11T01:22:04.591Z,98545.78
2023-03-11T01:22:16.989Z,98551.00
2023-03-11T01:22:28.970Z,98544.16
2023-03-11T01:22:41.012Z,98542.50
2023-03-11T01:22:53.969Z,98543.44
2023-03-11T01:23:06.728Z,98547.75
2023-03-11T01:23:19.791Z,98550.41
2023-03-11T01:23:32.571Z,98538.41
2023-03-11T01:23:44.762Z,98537.50
2023-03-11T01:23:56.652Z,98531.81
2023-03-11T01:24:08.784Z,98534.31
2023-03-11T01:24:20.681Z,98537.59
2023-03-11T01:24:32.601Z,98534.16
2023-03-11T01:24:46.192Z,98534.41
2023-03-11T01:24:58.086Z,98530.16
2023-03-11T01:25:16.399Z,98531.75
2023-03-11T01:25:28.597Z,98535.06
2023-03-11T01:25:40.649Z,98541.16
2023-03-11T01:25:52.613Z,98542.81
2023-03-11T01:26:04.711Z,98540.25
2023-03-11T01:26:16.666Z,98538.44
2023-03-11T01:26:28.570Z,98546.13
2023-03-11T01:26:40.522Z,98538.59
2023-03-11T01:26:52.417Z,98554.81
2023-03-11T01:27:04.456Z,98536.66
2023-03-11T01:27:16.401Z,98532.38
2023-03-11T01:27:28.722Z,98537.41
2023-03-11T01:27:40.971Z,98538.22
2023-03-11T01:27:52.876Z,98544.28
2023-03-11T01:28:05.833Z,98543.44
2023-03-11T01:28:17.861Z,98535.66
2023-03-11T01:28:29.829Z,98528.84
2023-03-11T01:28:41.798Z,98532.28
2023-03-11T01:28:53.703Z,98534.81
2023-03-11T01:29:05.605Z,98538.03
2023-03-11T01:29:17.541Z,98529.69
2023-03-11T01:29:29.476Z,98541.72
2023-03-11T01:29:41.458Z,98541.78
2023-03-11T01:29:53.435Z,98545.97
2023-03-11T01:30:06.326Z,98552.19
2023-03-11T01:30:21.650Z,98551.31
2023-03-11T01:30:34.814Z,98554.72
2023-03-11T01:30:46.766Z,98553.81
2023-03-11T01:30:58.778Z,98558.94
2023-03-11T01:31:11.251Z,98552.06
2023-03-11T01:31:23.251Z,98551.31
2023-03-11T01:31:35.585Z,98549.56
2023-03-11T01:31:47.678Z,98546.13
2023-03-11T01:31:59.808Z,98545.19
2023-03-11T01:32:11.771Z,98547.81
2023-03-11T01:32:23.968Z,98552.06
2023-03-11T01:32:36.017Z,98556.28
2023-03-11T01:32:48.286Z,98551.22
2023-03-11T01:33:03.805Z,98551.19
2023-03-11T01:33:20.967Z,98559.75
2023-03-11T01:33:32.918Z,98559.63
2023-03-11T01:33:44.855Z,98569.09
2023-03-11T01:33:58.809Z,98567.34
2023-03-11T01:34:10.834Z,98569.97
2023-03-11T01:34:22.733Z,98571.69
2023-03-11T01:34:36.089Z,98576.78
2023-03-11T01:34:48.069Z,98570.00
2023-03-11T01:35:00.038Z,98573.38
2023-03-11T01:35:14.505Z,98575.91
2023-03-11T01:35:28.806Z,98559.63
2023-03-11T01:35:42.252Z,98564.78
2023-03-11T01:35:54.360Z,98557.91
2023-03-11T01:36:06.901Z,98563.00
2023-03-11T01:36:18.857Z,98559.63
2023-03-11T01:36:30.800Z,98556.97
2023-03-11T01:36:42.750Z,98559.50
2023-03-11T01:36:54.743Z,98560.34
2023-03-11T01:37:06.706Z,98560.34
2023-03-11T01:37:20.114Z,98560.28
2023-03-11T01:37:32.117Z,98564.63
2023-03-11T01:37:45.338Z,98565.47
2023-03-11T01:37:58.418Z,98567.25
2023-03-11T01:38:11.233Z,98564.78
2023-03-11T01:38:23.189Z,98571.81
2023-03-11T01:38:35.162Z,98561.59
2023-03-11T01:38:48.276Z,98569.28
2023-03-11T01:39:00.187Z,98560.75
2023-03-11T01:39:12.132Z,98562.38
2023-03-11T01:39:24.065Z,98568.25
2023-03-11T01:39:36.063Z,98563.09
2023-03-11T01:39:48.053Z,98556.44
2023-03-11T01:39:59.970Z,98560.66
2023-03-11T01:40:19.847Z,98559.78
2023-03-11T01:40:33.089Z,98556.44
2023-03-11T01:40:48.299Z,98555.56
2023-03-11T01:41:00.415Z,98551.22
2023-03-11T01:41:12.788Z,98569.97
2023-03-11T01:41:24.738Z,98557.97
2023-03-11T01:41:36.785Z,98557.06
2023-03-11T01:41:48.683Z,98562.94
2023-03-11T01:42:00.791Z,98556.28
2023-03-11T01:42:12.776Z,98559.78
2023-03-11T01:42:24.726Z,98555.31
2023-03-11T01:42:36.704Z,98559.63
2023-03-11T01:42:48.667Z,98556.16
2023-03-11T01:43:01.680Z,98546.78
2023-03-11T01:43:41.371Z,98561.91
2023-03-11T01:43:54.740Z,98543.97
2023-03-11T01:44:07.069Z,98554.13
2023-03-11T01:44:19.175Z,98547.25
2023-03-11T01:44:31.151Z,98554.22
2023-03-11T01:44:46.118Z,98547.44
2023-03-11T01:44:58.098Z,98550.91
2023-03-11T01:45:36.376Z,98545.84
2023-03-11T01:45:51.011Z,98555.22
2023-03-11T01:46:07.954Z,98550.94
2023-03-11T01:46:22.767Z,98551.75
2023-03-11T01:47:02.375Z,98553.34
2023-03-11T01:47:14.224Z,98553.41
2023-03-11T01:47:38.587Z,98549.28
2023-03-11T01:47:50.609Z,98548.47
2023-03-11T01:48:02.929Z,98548.56
2023-03-11T01:48:14.893Z,98551.94
2023-03-11T01:48:26.839Z,98544.22
2023-03-11T01:48:39.024Z,98543.41
2023-03-11T01:48:56.495Z,98539.97
2023-03-11T01:49:12.246Z,98534.84
2023-03-11T01:49:24.218Z,98537.28
2023-03-11T01:49:41.778Z,98534.66
2023-03-11T01:49:53.674Z,98534.63
2023-03-11T01:50:10.826Z,98532.97
2023-03-11T01:50:23.212Z,98534.75
2023-03-11T01:50:40.249Z,98542.50
2023-03-11T01:50:52.354Z,98545.88
2023-03-11T01:51:06.238Z,98547.53
2023-03-11T01:51:27.464Z,98551.78
2023-03-11T01:51:44.750Z,98557.06
2023-03-11T01:52:07.997Z,98554.38
2023-03-11T01:52:21.078Z,98550.09
2023-03-11T01:52:33.290Z,98550.19
2023-03-11T01:52:45.667Z,98542.50
2023-03-11T01:52:57.643Z,98551.03
2023-03-11T01:53:10.979Z,98545.91
2023-03-11T01:53:25.040Z,98544.91
2023-03-11T01:53:36.990Z,98538.13
2023-03-11T01:53:48.950Z,98535.63
2023-03-11T01:54:06.880Z,98542.50
2023-03-11T01:54:23.909Z,98546.81
2023-03-11T01:54:39.522Z,98552.84
2023-03-11T01:54:52.004Z,98555.41
2023-03-11T01:55:06.215Z,98547.81
2023-03-11T01:55:19.610Z,98551.31
2023-03-11T01:55:32.500Z,98553.00
2023-03-11T01:55:47.711Z,98559.75
2023-03-11T01:56:02.548Z,98551.22
2023-03-11T01:56:14.778Z,98561.38
2023-03-11T01:56:28.292Z,98558.00
2023-03-11T01:56:41.993Z,98558.81
2023-03-11T01:56:55.212Z,98558.81
2023-03-11T01:57:12.424Z,98552.94
2023-03-11T01:57:24.879Z,98552.06
2023-03-11T01:57:40.220Z,98563.13
2023-03-11T01:57:53.246Z,98550.28
2023-03-11T01:58:11.791Z,98549.41
2023-03-11T01:58:26.947Z,98563.13
2023-03-11T01:58:44.959Z,98562.19
2023-03-11T01:58:57.696Z,98566.50
2023-03-11T01:59:13.546Z,98565.59
2023-03-11T01:59:30.490Z,98566.38
2023-03-11T01:59:50.751Z,98569.00
2023-03-11T02:00:07.706Z,98575.72
2023-03-11T02:00:20.087Z,98571.41
2023-03-11T02:00:32.148Z,98564.53
2023-03-11T02:00:44.552Z,98564.75
2023-03-11T02:00:57.047Z,98565.59
2023-03-11T02:01:08.983Z,98558.00
2023-03-11T02:01:22.105Z,98568.31
2023-03-11T02:01:36.480Z,98570.00
2023-03-11T02:01:59.306Z,98561.50
2023-03-11T02:02:32.410Z,98574.28
2023-03-11T02:02:51.770Z,98557.97
2023-03-11T02:03:11.135Z,98558.91
2023-03-11T02:03:32.241Z,98559.84
2023-03-11T02:03:44.188Z,98553.91
2023-03-11T02:03:57.736Z,98558.19
2023-03-11T02:04:09.905Z,98555.63
2023-03-11T02:04:21.880Z,98555.72
2023-03-11T02:04:35.776Z,98563.50
2023-03-11T02:04:49.494Z,98561.72
2023-03-11T02:05:02.365Z,98575.38
2023-03-11T02:05:14.418Z,98564.16
2023-03-11T02:05:26.582Z,98547.84
2023-03-11T02:05:39.887Z,98574.28
2023-03-11T02:05:53.860Z,98567.47
2023-03-11T02:06:25.818Z,98573.44
2023-03-11T02:06:38.159Z,98570.72
2023-03-11T02:06:53.705Z,98575.91
2023-03-11T02:07:09.325Z,98582.88
2023-03-11T02:07:23.083Z,98581.16
2023-03-11T02:07:38.360Z,98568.25
2023-03-11T02:07:52.409Z,98578.56
2023-03-11T02:08:04.658Z,98580.25
2023-03-11T02:08:16.675Z,98585.38
2023-03-11T02:08:30.002Z,98587.09
2023-03-11T02:08:43.952Z,98581.16
2023-03-11T02:08:56.045Z,98588.03
2023-03-11T02:09:08.540Z,98582.06
2023-03-11T02:09:22.238Z,98579.50
2023-03-11T02:09:34.215Z,98587.19
2023-03-11T02:09:48.679Z,98573.66
2023-03-11T02:10:01.893Z,98583.84
2023-03-11T02:10:14.325Z,98584.72
2023-03-11T02:10:26.352Z,98585.56
2023-03-11T02:10:41.592Z,98588.19
2023-03-11T02:10:54.213Z,98578.88
2023-03-11T02:11:09.929Z,98576.31
2023-03-11T02:11:29.038Z,98584.09
2023-03-11T02:11:41.024Z,98578.97
2023-03-11T02:11:53.353Z,98587.38
2023-03-11T02:12:08.252Z,98583.09
2023-03-11T02:12:20.680Z,98578.84
2023-03-11T02:12:36.685Z,98585.69
2023-03-11T02:12:50.625Z,98582.19
2023-03-11T02:13:03.817Z,98584.69
2023-03-11T02:13:16.669Z,98588.94
2023-03-11T02:13:29.843Z,98582.06
2023-03-11T02:13:43.656Z,98586.41
2023-03-11T02:14:01.003Z,98585.56
2023-03-11T02:14:13.432Z,98588.94
2023-03-11T02:14:27.609Z,98588.88
2023-03-11T02:14:43.450Z,98592.25
2023-03-11T02:14:55.453Z,98590.69
2023-03-11T02:15:09.421Z,98592.41
2023-03-11T02:15:21.389Z,98596.69
2023-03-11T02:15:33.660Z,98589.94
2023-03-11T02:15:46.163Z,98595.06
2023-03-11T02:16:00.543Z,98596.72
2023-03-11T02:16:14.275Z,98596.72
2023-03-11T02:16:40.993Z,98600.06
2023-03-11T02:16:53.304Z,98599.19
2023-03-11T02:17:07.898Z,98606.88
2023-03-11T02:17:20.618Z,98597.53
2023-03-11T02:17:33.179Z,98601.00
2023-03-11T02:17:45.296Z,98597.69
2023-03-11T02:17:58.324Z,98597.69
2023-03-11T02:18:14.523Z,98597.78
2023-03-11T02:18:26.517Z,98606.38
2023-03-11T02:18:38.733Z,98601.25
2023-03-11T02:18:50.773Z,98607.22
2023-03-11T02:19:25.808Z,98607.97
2023-03-11T02:19:46.500Z,98601.81
2023-03-11T02:20:16.545Z,98599.19
2023-03-11T02:20:40.592Z,98603.31
2023-03-11T02:21:03.467Z,98607.59
2023-03-11T02:21:34.738Z,98598.19
2023-03-11T02:21:46.837Z,98598.28
2023-03-11T02:21:59.299Z,98602.56
2023-03-11T02:22:13.576Z,98594.88
2023-03-11T02:22:29.030Z,98605.16
2023-03-11T02:22:42.682Z,98600.00
2023-03-11T02:22:57.271Z,98598.44
2023-03-11T02:23:09.976Z,98596.63
2023-03-11T02:23:27.098Z,98595.81
2023-03-11T02:24:02.569Z,98591.59
2023-03-11T02:24:23.015Z,98590.69
2023-03-11T02:24:42.085Z,98590.66
2023-03-11T02:25:09.342Z,98588.22
2023-03-11T02:25:30.805Z,98587.38
2023-03-11T02:25:59.178Z,98588.84
2023-03-11T02:26:15.166Z,98586.38
2023-03-11T02:26:39.425Z,98585.56
2023-03-11T02:27:08.007Z,98589.94
2023-03-11T02:27:22.064Z,98593.31
2023-03-11T02:27:38.604Z,98592.50
2023-03-11T02:27:53.533Z,98597.78
2023-03-11T02:28:10.071Z,98611.50
2023-03-11T02:28:23.035Z,98604.56
2023-03-11T02:28:37.702Z,98602.84
2023-03-11T02:28:50.530Z,98606.16
2023-03-11T02:29:05.799Z,98601.03
2023-03-11T02:29:19.834Z,98599.44
2023-03-11T02:29:33.589Z,98596.88
2023-03-11T02:29:49.735Z,98597.72
2023-03-11T02:30:02.319Z,98602.94
2023-03-11T02:30:16.314Z,98595.25
2023-03-11T02:30:29.190Z,98596.00
2023-03-11T02:30:43.270Z,98590.91
2023-03-11T02:30:56.847Z,98598.59
2023-03-11T02:31:08.904Z,98592.69
2023-03-11T02:31:21.817Z,98602.94
2023-03-11T02:31:36.207Z,98593.44
2023-03-11T02:31:49.582Z,98583.91
2023-03-11T02:32:08.797Z,98587.38
2023-03-11T02:32:21.461Z,98590.81
2023-03-11T02:32:34.398Z,98589.19
2023-03-11T02:32:48.468Z,98589.13
2023-03-11T02:33:02.150Z,98582.31
2023-03-11T02:33:15.120Z,98578.94
2023-03-11T02:33:31.331Z,98585.66
2023-03-11T02:33:46.440Z,98580.53
2023-03-11T02:34:01.576Z,98580.50
2023-03-11T02:34:23.537Z,98577.97
2023-03-11T02:34:38.683Z,98584.00
2023-03-11T02:34:50.623Z,98581.53
2023-03-11T02:35:03.368Z,98578.03
2023-03-11T02:35:16.799Z,98577.97
2023-03-11T02:35:29.680Z,98573.81
2023-03-11T02:35:41.630Z,98582.31
2023-03-11T02:35:53.594Z,98576.47
2023-03-11T02:36:06.099Z,98576.50
2023-03-11T02:36:49.312Z,98570.44
2023-03-11T02:37:05.375Z,98576.28
2023-03-11T02:37:17.863Z,98575.47
2023-03-11T02:37:29.833Z,98582.31
2023-03-11T02:37:49.710Z,98565.16
2023-03-11T02:38:01.714Z,98573.75
2023-03-11T02:38:14.326Z,98568.59
2023-03-11T02:38:26.268Z,98575.41
2023-03-11T02:38:38.159Z,98562.59
2023-03-11T02:38:50.059Z,98566.88
2023-03-11T02:39:02.999Z,98572.00
2023-03-11T02:39:14.969Z,98572.91
2023-03-11T02:39:36.714Z,98572.91
2023-03-11T02:39:51.616Z,98573.72
2023-03-11T02:40:34.088Z,98572.91
2023-03-11T02:40:55.714Z,98570.25
2023-03-11T02:41:07.822Z,98561.75